createdAt,value
2019-02-21T00:00:08.121Z,70.95
2019-02-21T00:01:19.417Z,70.73
2019-02-21T00:02:25.734Z,70.98
2019-02-21T00:03:30.123Z,71.33
2019-02-21T00:04:34.471Z,71.38
2019-02-21T00:05:38.809Z,70.78
2019-02-21T00:06:43.178Z,71.17
2019-02-21T00:07:47.583Z,71.30
2019-02-21T00:08:51.760Z,67.62
2019-02-21T00:09:56.119Z,66.15
2019-02-21T00:11:00.425Z,69.91
2019-02-21T00:12:04.730Z,70.54
2019-02-21T00:13:09.105Z,66.84
2019-02-21T00:14:13.453Z,65.34
2019-02-21T00:15:17.750Z,68.50
2019-02-21T00:16:22.098Z,65.13
2019-02-21T00:17:26.475Z,69.09
2019-02-21T00:18:30.751Z,69.90
2019-02-21T00:19:35.098Z,70.48
2019-02-21T00:20:39.526Z,70.10
2019-02-21T00:21:43.829Z,70.99
2019-02-21T00:22:48.198Z,65.86
2019-02-21T00:23:52.426Z,67.31
2019-02-21T00:24:56.877Z,67.65
2019-02-21T00:26:01.114Z,69.43
2019-02-21T00:27:05.503Z,69.33
2019-02-21T00:28:16.323Z,70.01
2019-02-21T00:29:20.609Z,70.39
2019-02-21T00:30:34.552Z,67.79
2019-02-21T00:31:29.340Z,63.65
2019-02-21T00:32:33.636Z,64.34
2019-02-21T00:33:37.828Z,64.36
2019-02-21T00:34:42.127Z,66.66
2019-02-21T00:35:46.472Z,69.04
2019-02-21T00:36:50.673Z,68.57
2019-02-21T00:37:55.033Z,69.03
2019-02-21T00:38:59.417Z,66.34
2019-02-21T00:40:03.670Z,67.82
2019-02-21T00:41:08.009Z,66.05
2019-02-21T00:42:12.463Z,68.87
2019-02-21T00:43:16.742Z,69.97
2019-02-21T00:44:21.146Z,68.32
2019-02-21T00:45:25.349Z,69.76
2019-02-21T00:46:35.929Z,69.93
2019-02-21T00:47:40.298Z,70.22
2019-02-21T00:48:44.516Z,63.64
2019-02-21T00:49:48.822Z,61.70
2019-02-21T00:50:53.113Z,65.10
2019-02-21T00:51:57.347Z,68.18
2019-02-21T00:53:01.634Z,68.67
2019-02-21T00:54:05.855Z,63.03
2019-02-21T00:55:10.230Z,67.17
2019-02-21T00:56:14.551Z,69.29
2019-02-21T00:57:18.863Z,69.62
2019-02-21T00:58:23.169Z,69.88
2019-02-21T00:59:27.430Z,69.96
2019-02-21T01:00:31.764Z,67.74
2019-02-21T01:01:36.089Z,68.78
2019-02-21T01:02:40.337Z,69.67
2019-02-21T01:03:44.584Z,69.33
2019-02-21T01:04:48.982Z,69.55
2019-02-21T01:05:53.227Z,65.38
2019-02-21T01:06:57.433Z,66.69
2019-02-21T01:08:01.718Z,68.75
2019-02-21T01:09:06.682Z,69.50
2019-02-21T01:10:11.188Z,69.89
2019-02-21T01:11:15.430Z,70.04
2019-02-21T01:12:19.774Z,65.90
2019-02-21T01:13:24.105Z,68.49
2019-02-21T01:14:28.338Z,67.87
2019-02-21T01:15:32.780Z,68.37
2019-02-21T01:16:37.156Z,69.19
2019-02-21T01:17:41.413Z,69.60
2019-02-21T01:18:45.688Z,69.96
2019-02-21T01:19:50.099Z,70.02
2019-02-21T01:20:57.281Z,70.24
2019-02-21T01:22:01.535Z,70.05
2019-02-21T01:23:05.862Z,70.38
2019-02-21T01:24:10.176Z,70.11
2019-02-21T01:25:14.547Z,70.54
2019-02-21T01:26:18.893Z,70.16
2019-02-21T01:27:23.188Z,70.39
2019-02-21T01:28:27.509Z,70.30
2019-02-21T01:29:31.778Z,70.33
2019-02-21T01:30:36.258Z,70.36
2019-02-21T01:31:40.647Z,70.51
2019-02-21T01:32:44.994Z,70.45
2019-02-21T01:33:49.238Z,67.08
2019-02-21T01:34:53.426Z,68.25
2019-02-21T01:35:57.733Z,69.77
2019-02-21T01:37:02.129Z,70.16
2019-02-21T01:38:06.478Z,69.83
2019-02-21T01:39:10.805Z,70.39
2019-02-21T01:40:15.185Z,70.11
2019-02-21T01:41:19.388Z,70.40
2019-02-21T01:42:23.893Z,70.46
2019-02-21T01:43:28.259Z,66.36
2019-02-21T01:44:32.537Z,67.92
2019-02-21T01:45:36.806Z,69.58
2019-02-21T01:46:41.151Z,69.67
2019-02-21T01:47:45.433Z,69.82
2019-02-21T01:48:49.768Z,70.42
2019-02-21T01:49:54.030Z,70.26
2019-02-21T01:50:58.364Z,70.54
2019-02-21T01:52:02.725Z,70.14
2019-02-21T01:53:07.094Z,70.40
2019-02-21T01:54:11.405Z,70.31
2019-02-21T01:55:15.694Z,70.11
2019-02-21T01:56:20.022Z,70.09
2019-02-21T01:57:24.275Z,70.42
2019-02-21T01:58:28.500Z,69.81
2019-02-21T01:59:32.842Z,70.39
2019-02-21T02:00:37.197Z,70.14
2019-02-21T02:01:41.471Z,70.37
2019-02-21T02:02:45.813Z,70.09
2019-02-21T02:03:50.192Z,70.23
2019-02-21T02:04:54.605Z,70.00
2019-02-21T02:05:58.977Z,70.08
2019-02-21T02:07:03.312Z,70.08
2019-02-21T02:08:07.714Z,70.04
2019-02-21T02:09:13.349Z,70.00
2019-02-21T02:10:17.558Z,69.92
2019-02-21T02:11:21.915Z,69.92
2019-02-21T02:12:26.209Z,69.91
2019-02-21T02:13:30.516Z,70.06
2019-02-21T02:14:34.789Z,70.05
2019-02-21T02:15:39.179Z,70.49
2019-02-21T02:16:43.405Z,69.94
2019-02-21T02:17:47.741Z,70.26
2019-02-21T02:18:52.174Z,70.14
2019-02-21T02:19:56.570Z,69.98
2019-02-21T02:21:00.951Z,70.21
2019-02-21T02:22:05.230Z,70.17
2019-02-21T02:23:09.568Z,70.32
2019-02-21T02:24:14.815Z,70.02
2019-02-21T02:25:18.407Z,70.04
2019-02-21T02:26:22.682Z,69.57
2019-02-21T02:27:27.008Z,69.98
2019-02-21T02:28:31.203Z,70.13
2019-02-21T02:29:35.564Z,70.23
2019-02-21T02:30:39.816Z,70.27
2019-02-21T02:31:44.221Z,69.93
2019-02-21T02:32:48.623Z,70.45
2019-02-21T02:33:52.972Z,70.32
2019-02-21T02:34:59.782Z,69.99
2019-02-21T02:36:01.661Z,69.94
2019-02-21T02:37:05.937Z,70.04
2019-02-21T02:38:10.276Z,70.40
2019-02-21T02:39:14.653Z,70.43
2019-02-21T02:40:19.016Z,70.25
2019-02-21T02:41:23.313Z,61.18
2019-02-21T02:42:27.535Z,67.58
2019-02-21T02:43:31.811Z,69.19
2019-02-21T02:44:36.147Z,69.43
2019-02-21T02:45:40.545Z,69.44
2019-02-21T02:46:44.873Z,69.74
2019-02-21T02:47:49.198Z,69.60
2019-02-21T02:48:53.444Z,69.51
2019-02-21T02:49:57.785Z,69.52
2019-02-21T02:51:02.126Z,69.95
2019-02-21T02:52:06.506Z,66.10
2019-02-21T02:53:10.798Z,68.35
2019-02-21T02:54:15.093Z,65.79
2019-02-21T02:55:19.428Z,66.46
2019-02-21T02:56:23.786Z,68.15
2019-02-21T02:57:28.157Z,69.03
2019-02-21T02:58:32.343Z,68.86
2019-02-21T02:59:40.941Z,69.08
2019-02-21T03:00:41.112Z,69.33
2019-02-21T03:01:45.433Z,69.75
2019-02-21T03:02:49.800Z,69.45
2019-02-21T03:03:54.089Z,69.78
2019-02-21T03:04:58.395Z,69.42
2019-02-21T03:06:02.766Z,69.77
2019-02-21T03:07:07.231Z,69.66
2019-02-21T03:08:11.404Z,69.80
2019-02-21T03:09:15.747Z,69.63
2019-02-21T03:10:19.929Z,69.80
2019-02-21T03:11:24.253Z,69.48
2019-02-21T03:12:28.604Z,69.96
2019-02-21T03:13:32.973Z,69.59
2019-02-21T03:14:37.219Z,69.67
2019-02-21T03:15:41.472Z,69.47
2019-02-21T03:16:45.739Z,69.67
2019-02-21T03:17:50.115Z,69.86
2019-02-21T03:18:54.435Z,69.84
2019-02-21T03:19:58.722Z,62.33
2019-02-21T03:21:03.031Z,67.50
2019-02-21T03:22:07.339Z,69.08
2019-02-21T03:23:11.680Z,69.15
2019-02-21T03:24:16.048Z,69.08
2019-02-21T03:25:20.391Z,69.43
2019-02-21T03:26:24.679Z,69.69
2019-02-21T03:27:28.977Z,69.46
2019-02-21T03:28:33.351Z,69.89
2019-02-21T03:29:37.670Z,69.45
2019-02-21T03:30:42.019Z,69.56
2019-02-21T03:31:54.170Z,69.68
2019-02-21T03:32:50.721Z,69.77
2019-02-21T03:33:55.088Z,69.06
2019-02-21T03:34:59.445Z,69.70
2019-02-21T03:36:03.781Z,69.50
2019-02-21T03:37:08.170Z,69.90
2019-02-21T03:38:12.461Z,69.78
2019-02-21T03:39:16.832Z,69.45
2019-02-21T03:40:21.170Z,66.89
2019-02-21T03:41:25.505Z,68.79
2019-02-21T03:42:29.754Z,69.30
2019-02-21T03:43:34.093Z,69.49
2019-02-21T03:44:38.546Z,69.89
2019-02-21T03:45:42.818Z,68.26
2019-02-21T03:46:47.053Z,64.94
2019-02-21T03:47:51.320Z,64.26
2019-02-21T03:48:55.551Z,63.57
2019-02-21T03:49:59.998Z,63.17
2019-02-21T03:51:04.424Z,66.73
2019-02-21T03:52:08.768Z,67.78
2019-02-21T03:53:13.183Z,66.18
2019-02-21T03:54:17.513Z,68.25
2019-02-21T03:55:21.922Z,69.00
2019-02-21T03:56:26.247Z,68.19
2019-02-21T03:57:30.632Z,68.99
2019-02-21T03:58:34.979Z,69.72
2019-02-21T03:59:39.332Z,69.64
2019-02-21T04:00:43.593Z,69.43
2019-02-21T04:01:47.864Z,69.26
2019-02-21T04:02:52.070Z,67.52
2019-02-21T04:03:56.385Z,69.17
2019-02-21T04:05:00.697Z,69.90
2019-02-21T04:06:04.975Z,67.83
2019-02-21T04:07:09.217Z,68.25
2019-02-21T04:08:13.531Z,67.81
2019-02-21T04:09:17.728Z,69.71
2019-02-21T04:10:21.930Z,69.36
2019-02-21T04:11:26.271Z,69.93
2019-02-21T04:12:30.644Z,70.37
2019-02-21T04:13:34.862Z,69.49
2019-02-21T04:14:39.235Z,69.68
2019-02-21T04:15:43.458Z,69.85
2019-02-21T04:16:47.981Z,69.18
2019-02-21T04:17:52.198Z,67.22
2019-02-21T04:18:56.498Z,66.87
2019-02-21T04:20:00.753Z,64.63
2019-02-21T04:21:05.212Z,68.16
2019-02-21T04:22:09.555Z,67.65
2019-02-21T04:23:13.803Z,69.47
2019-02-21T04:24:18.138Z,68.11
2019-02-21T04:25:22.431Z,69.95
2019-02-21T04:26:26.750Z,69.21
2019-02-21T04:27:31.133Z,67.04
2019-02-21T04:28:35.471Z,68.85
2019-02-21T04:29:39.730Z,69.49
2019-02-21T04:30:44.097Z,69.01
2019-02-21T04:31:48.396Z,69.96
2019-02-21T04:32:52.735Z,70.12
2019-02-21T04:33:57.133Z,69.54
2019-02-21T04:35:01.350Z,69.77
2019-02-21T04:36:05.729Z,70.99
2019-02-21T04:37:10.047Z,69.89
2019-02-21T04:38:14.485Z,70.09
2019-02-21T04:39:18.756Z,70.82
2019-02-21T04:40:22.974Z,70.10
2019-02-21T04:41:27.294Z,70.55
2019-02-21T04:42:31.477Z,71.25
2019-02-21T04:43:35.921Z,70.56
2019-02-21T04:44:40.331Z,71.38
2019-02-21T04:45:44.626Z,71.67
2019-02-21T04:46:49.019Z,70.46
2019-02-21T04:47:53.346Z,69.78
2019-02-21T04:48:57.697Z,71.10
2019-02-21T04:50:01.988Z,71.58
2019-02-21T04:51:06.235Z,71.79
2019-02-21T04:52:10.404Z,72.04
2019-02-21T04:53:14.750Z,71.31
2019-02-21T04:54:19.205Z,72.02
2019-02-21T04:55:23.418Z,71.94
2019-02-21T04:56:27.809Z,72.23
2019-02-21T04:57:32.020Z,71.96
2019-02-21T04:58:36.394Z,72.07
2019-02-21T04:59:40.779Z,72.16
2019-02-21T05:00:45.112Z,70.87
2019-02-21T05:01:49.438Z,71.12
2019-02-21T05:02:53.640Z,71.39
2019-02-21T05:03:57.833Z,71.89
2019-02-21T05:05:02.191Z,72.46
2019-02-21T05:06:06.449Z,70.97
2019-02-21T05:07:10.794Z,71.91
2019-02-21T05:08:14.987Z,72.55
2019-02-21T05:09:19.293Z,71.92
2019-02-21T05:10:23.473Z,70.38
2019-02-21T05:11:27.812Z,71.80
2019-02-21T05:12:38.199Z,71.00
2019-02-21T05:13:42.515Z,71.35
2019-02-21T05:14:46.775Z,71.95
2019-02-21T05:15:51.115Z,72.57
2019-02-21T05:16:55.476Z,72.51
2019-02-21T05:17:59.716Z,72.24
2019-02-21T05:19:03.906Z,72.71
2019-02-21T05:20:08.257Z,72.88
2019-02-21T05:21:12.652Z,73.01
2019-02-21T05:22:17.032Z,72.66
2019-02-21T05:23:21.411Z,72.85
2019-02-21T05:24:25.765Z,71.87
2019-02-21T05:25:30.061Z,72.46
2019-02-21T05:26:39.181Z,72.58
2019-02-21T05:27:47.465Z,72.52
2019-02-21T05:28:51.862Z,71.10
2019-02-21T05:29:56.043Z,72.00
2019-02-21T05:31:05.169Z,72.79
2019-02-21T05:32:17.394Z,71.71
2019-02-21T05:33:26.808Z,70.94
2019-02-21T05:34:36.048Z,70.81
2019-02-21T05:35:45.104Z,72.47
2019-02-21T05:36:54.403Z,72.70
2019-02-21T05:38:03.790Z,71.62
2019-02-21T05:39:17.101Z,71.94
2019-02-21T05:40:28.449Z,72.78
2019-02-21T05:41:41.599Z,73.50
2019-02-21T05:42:50.919Z,73.48
2019-02-21T05:44:33.755Z,73.06
2019-02-21T05:46:42.664Z,70.62
2019-02-21T05:47:51.056Z,72.86
2019-02-21T05:49:31.719Z,73.04
2019-02-21T05:50:40.221Z,73.19
2019-02-21T05:51:51.696Z,73.42
2019-02-21T05:54:01.747Z,71.77
2019-02-21T05:55:17.954Z,72.63
2019-02-21T05:56:27.212Z,73.35
2019-02-21T05:57:43.330Z,71.34
2019-02-21T05:59:06.963Z,73.13
2019-02-21T06:00:18.250Z,70.69
2019-02-21T06:01:28.613Z,70.94
2019-02-21T06:02:55.159Z,72.53
2019-02-21T06:04:05.509Z,72.73
2019-02-21T06:06:12.693Z,71.93
2019-02-21T06:07:21.027Z,73.01
2019-02-21T06:08:47.372Z,73.21
2019-02-21T06:09:57.621Z,73.62
2019-02-21T06:11:18.451Z,71.19
2019-02-21T06:12:33.459Z,71.98
2019-02-21T06:13:40.494Z,70.96
2019-02-21T06:14:48.733Z,72.61
2019-02-21T06:15:58.318Z,72.65
2019-02-21T06:17:13.611Z,73.36
2019-02-21T06:18:23.858Z,74.13
2019-02-21T06:19:33.356Z,73.54
2019-02-21T06:21:00.107Z,73.25
2019-02-21T06:22:11.456Z,72.15
2019-02-21T06:23:21.730Z,73.85
2019-02-21T06:24:31.139Z,74.33
2019-02-21T06:26:39.576Z,74.49
2019-02-21T06:27:46.519Z,73.38
2019-02-21T06:28:57.109Z,74.14
2019-02-21T06:30:08.378Z,73.81
2019-02-21T06:31:15.749Z,72.12
2019-02-21T06:32:20.064Z,72.05
2019-02-21T06:33:24.397Z,71.48
2019-02-21T06:34:28.740Z,71.09
2019-02-21T06:35:33.268Z,71.69
2019-02-21T06:36:37.595Z,72.69
2019-02-21T06:37:41.901Z,72.25
2019-02-21T06:38:46.313Z,73.65
2019-02-21T06:39:50.611Z,73.49
2019-02-21T06:40:54.882Z,71.88
2019-02-21T06:42:00.266Z,70.88
2019-02-21T06:43:03.502Z,71.67
2019-02-21T06:44:07.703Z,72.33
2019-02-21T06:45:11.903Z,72.27
2019-02-21T06:46:16.148Z,73.22
2019-02-21T06:47:20.699Z,73.66
2019-02-21T06:48:24.926Z,73.34
2019-02-21T06:49:32.589Z,72.33
2019-02-21T06:50:33.842Z,71.84
2019-02-21T06:51:38.181Z,72.99
2019-02-21T06:52:42.525Z,73.72
2019-02-21T06:53:46.897Z,73.04
2019-02-21T06:54:51.195Z,72.77
2019-02-21T06:55:55.511Z,73.80
2019-02-21T06:56:59.805Z,71.89
2019-02-21T06:58:04.183Z,71.13
2019-02-21T06:59:08.530Z,72.66
2019-02-21T07:00:12.830Z,73.05
2019-02-21T07:01:26.662Z,73.31
2019-02-21T07:02:21.574Z,73.48
2019-02-21T07:03:25.953Z,73.58
2019-02-21T07:04:29.983Z,72.01
2019-02-21T07:05:33.982Z,73.14
2019-02-21T07:06:39.269Z,72.87
2019-02-21T07:07:42.041Z,72.65
2019-02-21T07:08:46.134Z,72.90
2019-02-21T07:09:50.155Z,73.22
2019-02-21T07:11:05.479Z,73.21
2019-02-21T07:11:58.892Z,73.31
2019-02-21T07:13:03.202Z,72.05
2019-02-21T07:14:07.547Z,71.77
2019-02-21T07:15:11.898Z,72.39
2019-02-21T07:16:16.114Z,72.26
2019-02-21T07:17:20.334Z,71.07
2019-02-21T07:18:24.625Z,71.52
2019-02-21T07:19:29.015Z,72.15
2019-02-21T07:20:33.334Z,69.97
2019-02-21T07:21:37.672Z,72.11
2019-02-21T07:22:41.909Z,72.36
2019-02-21T07:23:46.287Z,72.68
2019-02-21T07:24:58.098Z,70.37
2019-02-21T07:26:05.794Z,70.92
2019-02-21T07:27:10.094Z,71.37
2019-02-21T07:28:15.982Z,72.20
2019-02-21T07:29:19.094Z,71.89
2019-02-21T07:30:23.529Z,71.04
2019-02-21T07:31:29.307Z,72.11
2019-02-21T07:32:32.270Z,71.61
2019-02-21T07:33:36.622Z,68.19
2019-02-21T07:34:40.941Z,68.74
2019-02-21T07:35:45.341Z,70.76
2019-02-21T07:36:50.212Z,70.82
2019-02-21T07:37:54.096Z,70.55
2019-02-21T07:39:13.859Z,71.48
2019-02-21T07:40:02.817Z,72.12
2019-02-21T07:41:07.256Z,71.45
2019-02-21T07:42:11.508Z,71.53
2019-02-21T07:43:15.843Z,71.86
2019-02-21T07:44:20.126Z,71.62
2019-02-21T07:45:24.403Z,70.67
2019-02-21T07:46:28.644Z,70.03
2019-02-21T07:47:32.968Z,70.87
2019-02-21T07:48:37.141Z,69.64
2019-02-21T07:49:41.542Z,70.50
2019-02-21T07:50:46.038Z,70.87
2019-02-21T07:51:50.334Z,70.32
2019-02-21T07:53:02.094Z,70.77
2019-02-21T07:53:59.111Z,70.81
2019-02-21T07:55:03.393Z,65.06
2019-02-21T07:56:07.806Z,65.86
2019-02-21T07:57:12.025Z,69.09
2019-02-21T07:58:16.405Z,69.53
2019-02-21T07:59:20.675Z,69.78
2019-02-21T08:00:25.062Z,66.91
2019-02-21T08:01:29.415Z,69.48
2019-02-21T08:02:33.753Z,68.21
2019-02-21T08:03:44.175Z,69.90
2019-02-21T08:04:42.376Z,69.50
2019-02-21T08:05:46.703Z,70.62
2019-02-21T08:06:51.146Z,70.07
2019-02-21T08:07:55.502Z,70.21
2019-02-21T08:08:59.869Z,69.13
2019-02-21T08:10:04.229Z,68.77
2019-02-21T08:11:08.589Z,70.25
2019-02-21T08:12:13.008Z,66.31
2019-02-21T08:13:17.359Z,67.76
2019-02-21T08:14:21.502Z,68.88
2019-02-21T08:15:27.664Z,69.14
2019-02-21T08:16:30.221Z,69.59
2019-02-21T08:17:34.635Z,70.56
2019-02-21T08:18:39.024Z,70.51
2019-02-21T08:19:43.348Z,70.48
2019-02-21T08:20:47.735Z,63.71
2019-02-21T08:21:52.049Z,64.64
2019-02-21T08:22:56.535Z,66.92
2019-02-21T08:24:00.766Z,69.30
2019-02-21T08:25:05.180Z,66.73
2019-02-21T08:26:09.596Z,68.23
2019-02-21T08:27:13.877Z,69.00
2019-02-21T08:28:18.267Z,68.80
2019-02-21T08:29:22.660Z,65.99
2019-02-21T08:30:29.031Z,68.54
2019-02-21T08:31:31.365Z,68.18
2019-02-21T08:32:39.729Z,67.84
2019-02-21T08:34:04.433Z,67.96
2019-02-21T08:35:08.013Z,68.39
2019-02-21T08:36:12.504Z,66.38
2019-02-21T08:37:16.853Z,68.13
2019-02-21T08:38:21.069Z,69.25
2019-02-21T08:39:25.531Z,69.61
2019-02-21T08:40:29.835Z,68.17
2019-02-21T08:41:34.198Z,68.19
2019-02-21T08:42:38.593Z,63.34
2019-02-21T08:43:42.811Z,66.78
2019-02-21T08:44:47.212Z,68.33
2019-02-21T08:45:51.427Z,69.14
2019-02-21T08:46:55.796Z,68.21
2019-02-21T08:48:00.168Z,66.65
2019-02-21T08:49:04.601Z,68.71
2019-02-21T08:50:08.941Z,66.39
2019-02-21T08:51:13.152Z,65.74
2019-02-21T08:52:17.442Z,64.30
2019-02-21T08:53:21.765Z,66.74
2019-02-21T08:54:25.997Z,61.96
2019-02-21T08:55:30.283Z,61.18
2019-02-21T08:56:34.575Z,65.66
2019-02-21T08:57:38.905Z,65.43
2019-02-21T08:58:43.196Z,67.83
2019-02-21T08:59:47.707Z,66.16
2019-02-21T09:00:54.343Z,64.40
2019-02-21T09:01:56.326Z,66.30
2019-02-21T09:03:00.555Z,62.92
2019-02-21T09:04:10.530Z,66.85
2019-02-21T09:05:09.615Z,62.15
2019-02-21T09:06:13.933Z,65.02
2019-02-21T09:07:18.286Z,67.02
2019-02-21T09:08:32.737Z,68.24
2019-02-21T09:09:27.040Z,68.34
2019-02-21T09:10:31.470Z,65.96
2019-02-21T09:11:35.696Z,65.94
2019-02-21T09:12:40.150Z,67.65
2019-02-21T09:13:44.453Z,68.20
2019-02-21T09:14:48.786Z,68.12
2019-02-21T09:15:55.752Z,68.08
2019-02-21T09:16:57.554Z,63.68
2019-02-21T09:18:01.930Z,62.07
2019-02-21T09:19:06.219Z,65.32
2019-02-21T09:20:10.780Z,65.77
2019-02-21T09:21:15.174Z,66.57
2019-02-21T09:22:19.423Z,64.35
2019-02-21T09:23:23.852Z,65.72
2019-02-21T09:24:38.482Z,64.83
2019-02-21T09:25:32.438Z,65.54
2019-02-21T09:26:36.777Z,62.24
2019-02-21T09:27:41.067Z,64.24
2019-02-21T09:28:45.381Z,64.81
2019-02-21T09:29:49.563Z,64.89
2019-02-21T09:30:53.951Z,64.26
2019-02-21T09:31:58.297Z,61.73
2019-02-21T09:33:02.723Z,58.85
2019-02-21T09:34:07.118Z,61.27
2019-02-21T09:35:11.414Z,64.27
2019-02-21T09:36:15.761Z,64.20
2019-02-21T09:37:20.204Z,61.69
2019-02-21T09:38:24.539Z,62.37
2019-02-21T09:39:28.765Z,64.71
2019-02-21T09:40:33.092Z,63.10
2019-02-21T09:41:37.390Z,65.86
2019-02-21T09:42:41.926Z,65.84
2019-02-21T09:43:46.326Z,62.47
2019-02-21T09:44:50.620Z,62.67
2019-02-21T09:45:54.921Z,63.55
2019-02-21T09:46:59.220Z,65.94
2019-02-21T09:48:03.646Z,63.96
2019-02-21T09:49:07.837Z,62.19
2019-02-21T09:50:12.245Z,62.31
2019-02-21T09:51:18.350Z,64.90
2019-02-21T09:52:20.845Z,64.50
2019-02-21T09:53:25.234Z,64.41
2019-02-21T09:54:29.612Z,64.64
2019-02-21T09:55:34.045Z,65.83
2019-02-21T09:56:38.303Z,62.55
2019-02-21T09:57:42.541Z,65.07
2019-02-21T09:58:46.982Z,60.42
2019-02-21T09:59:51.315Z,62.32
2019-02-21T10:00:55.537Z,63.25
2019-02-21T10:01:59.827Z,61.57
2019-02-21T10:03:04.165Z,62.16
2019-02-21T10:04:08.445Z,61.28
2019-02-21T10:05:12.765Z,62.41
2019-02-21T10:06:17.073Z,59.27
2019-02-21T10:07:21.371Z,57.70
2019-02-21T10:08:25.700Z,60.79
2019-02-21T10:09:29.983Z,63.01
2019-02-21T10:10:34.331Z,61.24
2019-02-21T10:11:38.622Z,59.22
2019-02-21T10:12:43.044Z,60.80
2019-02-21T10:13:47.224Z,63.77
2019-02-21T10:14:51.514Z,63.39
2019-02-21T10:15:55.836Z,61.95
2019-02-21T10:17:00.166Z,63.63
2019-02-21T10:18:04.498Z,63.21
2019-02-21T10:19:08.794Z,62.46
2019-02-21T10:20:15.253Z,63.56
2019-02-21T10:21:19.458Z,64.40
2019-02-21T10:22:26.110Z,65.09
2019-02-21T10:23:28.287Z,63.45
2019-02-21T10:24:32.686Z,64.90
2019-02-21T10:25:37.134Z,60.26
2019-02-21T10:26:41.482Z,62.16
2019-02-21T10:27:45.867Z,64.04
2019-02-21T10:28:50.225Z,63.92
2019-02-21T10:29:54.550Z,64.77
2019-02-21T10:30:59.005Z,60.67
2019-02-21T10:32:03.453Z,63.97
2019-02-21T10:33:07.779Z,62.00
2019-02-21T10:34:12.137Z,64.26
2019-02-21T10:35:16.482Z,62.70
2019-02-21T10:36:20.813Z,64.25
2019-02-21T10:37:25.186Z,59.32
2019-02-21T10:38:29.525Z,60.70
2019-02-21T10:39:33.930Z,62.90
2019-02-21T10:40:38.229Z,58.61
2019-02-21T10:41:42.590Z,60.92
2019-02-21T10:42:46.993Z,63.48
2019-02-21T10:43:51.358Z,63.28
2019-02-21T10:44:55.603Z,63.74
2019-02-21T10:45:59.925Z,62.64
2019-02-21T10:47:04.276Z,62.06
2019-02-21T10:48:08.501Z,63.24
2019-02-21T10:49:12.894Z,59.50
2019-02-21T10:50:18.773Z,59.03
2019-02-21T10:51:23.202Z,58.96
2019-02-21T10:52:27.567Z,59.15
2019-02-21T10:53:31.868Z,56.26
2019-02-21T10:54:36.190Z,61.01
2019-02-21T10:55:40.697Z,60.22
2019-02-21T10:56:45.152Z,60.23
2019-02-21T10:57:49.433Z,57.30
2019-02-21T10:58:53.939Z,59.33
2019-02-21T10:59:58.571Z,59.08
2019-02-21T11:01:03.039Z,60.57
2019-02-21T11:02:07.540Z,55.73
2019-02-21T11:03:11.812Z,55.66
2019-02-21T11:04:16.090Z,53.09
2019-02-21T11:05:20.265Z,56.74
2019-02-21T11:06:24.574Z,56.90
2019-02-21T11:07:28.634Z,58.68
2019-02-21T11:08:33.046Z,59.42
2019-02-21T11:09:37.460Z,56.14
2019-02-21T11:10:41.955Z,57.87
2019-02-21T11:11:46.431Z,54.00
2019-02-21T11:12:50.878Z,60.48
2019-02-21T11:13:55.282Z,52.87
2019-02-21T11:14:59.580Z,57.15
2019-02-21T11:16:04.120Z,57.21
2019-02-21T11:17:08.352Z,58.71
2019-02-21T11:18:12.770Z,61.49
2019-02-21T11:19:17.053Z,57.15
2019-02-21T11:20:21.395Z,61.65
2019-02-21T11:21:25.624Z,58.65
2019-02-21T11:22:29.946Z,59.44
2019-02-21T11:23:34.580Z,52.54
2019-02-21T11:24:38.978Z,58.94
2019-02-21T11:25:43.286Z,58.40
2019-02-21T11:26:47.580Z,61.24
2019-02-21T11:27:52.014Z,56.67
2019-02-21T11:28:56.429Z,60.69
2019-02-21T11:30:00.837Z,55.67
2019-02-21T11:31:05.156Z,60.57
2019-02-21T11:32:09.524Z,59.12
2019-02-21T11:33:13.766Z,55.50
2019-02-21T11:34:18.091Z,57.90
2019-02-21T11:35:22.523Z,56.85
2019-02-21T11:36:26.869Z,55.79
2019-02-21T11:37:42.413Z,58.25
2019-02-21T11:38:35.579Z,54.14
2019-02-21T11:39:39.909Z,60.10
2019-02-21T11:40:44.198Z,57.02
2019-02-21T11:41:48.585Z,58.00
2019-02-21T11:42:52.913Z,56.53
2019-02-21T11:43:57.183Z,59.68
2019-02-21T11:45:01.580Z,60.21
2019-02-21T11:46:06.073Z,60.62
2019-02-21T11:47:10.435Z,57.94
2019-02-21T11:48:14.792Z,57.71
2019-02-21T11:49:19.117Z,59.58
2019-02-21T11:50:23.513Z,59.70
2019-02-21T11:51:27.906Z,57.05
2019-02-21T11:52:32.227Z,60.39
2019-02-21T11:53:38.110Z,60.98
2019-02-21T11:54:41.007Z,60.33
2019-02-21T11:55:45.358Z,55.28
2019-02-21T11:56:49.652Z,61.42
2019-02-21T11:57:54.041Z,62.05
2019-02-21T11:58:58.113Z,62.34
2019-02-21T12:00:02.587Z,61.24
2019-02-21T12:01:08.343Z,62.37
2019-02-21T12:02:12.734Z,62.51
2019-02-21T12:03:17.064Z,62.28
2019-02-21T12:04:21.474Z,59.61
2019-02-21T12:05:31.555Z,53.72
2019-02-21T12:06:30.137Z,57.02
2019-02-21T12:07:34.445Z,58.00
2019-02-21T12:08:38.763Z,59.81
2019-02-21T12:09:43.082Z,52.53
2019-02-21T12:10:47.146Z,59.24
2019-02-21T12:11:51.227Z,56.49
2019-02-21T12:12:55.241Z,60.41
2019-02-21T12:13:59.260Z,61.47
2019-02-21T12:15:03.406Z,60.30
2019-02-21T12:16:07.460Z,55.20
2019-02-21T12:17:11.573Z,56.14
2019-02-21T12:18:15.669Z,55.25
2019-02-21T12:19:19.751Z,59.20
2019-02-21T12:20:23.766Z,54.56
2019-02-21T12:21:27.902Z,54.41
2019-02-21T12:22:31.915Z,58.77
2019-02-21T12:23:35.960Z,56.39
2019-02-21T12:24:39.984Z,56.22
2019-02-21T12:25:44.041Z,58.31
2019-02-21T12:26:48.101Z,56.63
2019-02-21T12:27:52.159Z,50.53
2019-02-21T12:28:56.199Z,51.30
2019-02-21T12:30:00.323Z,50.81
2019-02-21T12:31:04.373Z,55.65
2019-02-21T12:32:08.509Z,55.10
2019-02-21T12:33:12.547Z,56.82
2019-02-21T12:34:16.624Z,57.08
2019-02-21T12:35:29.345Z,58.55
2019-02-21T12:36:24.820Z,58.73
2019-02-21T12:37:28.988Z,59.41
2019-02-21T12:38:33.076Z,58.42
2019-02-21T12:39:37.123Z,60.16
2019-02-21T12:40:41.165Z,54.69
2019-02-21T12:41:45.177Z,50.60
2019-02-21T12:42:49.324Z,54.38
2019-02-21T12:43:53.424Z,56.82
2019-02-21T12:44:57.455Z,54.56
2019-02-21T12:46:01.885Z,56.10
2019-02-21T12:47:05.943Z,54.16
2019-02-21T12:48:10.104Z,53.43
2019-02-21T12:49:14.153Z,55.36
2019-02-21T12:50:18.240Z,55.67
2019-02-21T12:51:22.247Z,56.48
2019-02-21T12:52:26.253Z,51.74
2019-02-21T12:53:30.335Z,58.13
2019-02-21T12:54:34.407Z,51.98
2019-02-21T12:55:38.460Z,51.18
2019-02-21T12:56:42.492Z,53.52
2019-02-21T12:57:46.547Z,52.83
2019-02-21T12:58:50.639Z,52.15
2019-02-21T12:59:54.652Z,51.41
2019-02-21T13:00:58.685Z,53.54
2019-02-21T13:02:02.714Z,57.81
2019-02-21T13:03:06.767Z,58.94
2019-02-21T13:04:10.855Z,59.16
2019-02-21T13:05:14.852Z,59.53
2019-02-21T13:06:18.880Z,58.26
2019-02-21T13:07:22.937Z,54.43
2019-02-21T13:08:26.969Z,58.43
2019-02-21T13:09:31.123Z,56.02
2019-02-21T13:10:35.165Z,55.14
2019-02-21T13:11:39.227Z,51.03
2019-02-21T13:12:43.310Z,52.67
2019-02-21T13:13:47.350Z,51.33
2019-02-21T13:14:51.411Z,54.86
2019-02-21T13:15:55.464Z,56.63
2019-02-21T13:16:59.534Z,53.01
2019-02-21T13:18:03.558Z,55.47
2019-02-21T13:19:07.666Z,55.08
2019-02-21T13:20:12.082Z,53.87
2019-02-21T13:21:16.128Z,56.79
2019-02-21T13:22:20.147Z,54.99
2019-02-21T13:23:24.169Z,55.12
2019-02-21T13:24:28.166Z,54.46
2019-02-21T13:25:32.282Z,54.01
2019-02-21T13:26:36.304Z,52.89
2019-02-21T13:27:40.316Z,53.63
2019-02-21T13:28:44.369Z,54.07
2019-02-21T13:29:48.407Z,56.23
2019-02-21T13:30:52.536Z,55.05
2019-02-21T13:31:56.567Z,55.90
2019-02-21T13:33:00.549Z,55.59
2019-02-21T13:34:04.587Z,57.33
2019-02-21T13:35:08.952Z,55.43
2019-02-21T13:36:13.027Z,56.62
2019-02-21T13:37:27.894Z,55.43
2019-02-21T13:38:21.169Z,56.27
2019-02-21T13:39:25.189Z,56.05
2019-02-21T13:40:29.187Z,56.20
2019-02-21T13:41:33.342Z,56.34
2019-02-21T13:42:37.441Z,59.09
2019-02-21T13:43:41.467Z,57.79
2019-02-21T13:44:45.493Z,58.61
2019-02-21T13:45:49.526Z,56.85
2019-02-21T13:46:53.595Z,56.32
2019-02-21T13:47:57.710Z,56.74
2019-02-21T13:49:01.826Z,56.99
2019-02-21T13:50:07.794Z,56.27
2019-02-21T13:51:11.810Z,58.15
2019-02-21T13:52:16.116Z,56.53
2019-02-21T13:53:20.147Z,57.84
2019-02-21T13:54:24.157Z,56.93
2019-02-21T13:55:28.154Z,57.01
2019-02-21T13:56:32.171Z,58.91
2019-02-21T13:57:36.225Z,59.25
2019-02-21T13:58:40.259Z,57.29
2019-02-21T13:59:44.343Z,57.50